Map

Track Data

SID SEASON NUMBER BASIN SUBBASIN NAME ISO_TIME NATURE LAT LON WMO_WIND WMO_PRES WMO_AGENCY TRACK_TYPE DIST2LAND LANDFALL IFLAG USA_AGENCY USA_ATCF_ID USA_LAT USA_LON USA_RECORD USA_STATUS USA_WIND USA_PRES USA_SSHS USA_R34_NE USA_R34_SE USA_R34_SW USA_R34_NW USA_R50_NE USA_R50_SE USA_R50_SW USA_R50_NW USA_R64_NE USA_R64_SE USA_R64_SW USA_R64_NW USA_POCI USA_ROCI USA_RMW USA_EYE TOKYO_LAT TOKYO_LON TOKYO_GRADE TOKYO_WIND TOKYO_PRES TOKYO_R50_DIR TOKYO_R50_LONG TOKYO_R50_SHORT TOKYO_R30_DIR TOKYO_R30_LONG TOKYO_R30_SHORT TOKYO_LAND CMA_LAT CMA_LON CMA_CAT CMA_WIND CMA_PRES HKO_LAT HKO_LON HKO_CAT HKO_WIND HKO_PRES NEWDELHI_LAT NEWDELHI_LON NEWDELHI_GRADE NEWDELHI_WIND NEWDELHI_PRES NEWDELHI_CI NEWDELHI_DP NEWDELHI_POCI REUNION_LAT REUNION_LON REUNION_TYPE REUNION_WIND REUNION_PRES REUNION_TNUM REUNION_CI REUNION_RMW REUNION_R34_NE REUNION_R34_SE REUNION_R34_SW REUNION_R34_NW REUNION_R50_NE REUNION_R50_SE REUNION_R50_SW REUNION_R50_NW REUNION_R64_NE REUNION_R64_SE REUNION_R64_SW REUNION_R64_NW BOM_LAT BOM_LON BOM_TYPE BOM_WIND BOM_PRES BOM_TNUM BOM_CI BOM_RMW BOM_R34_NE BOM_R34_SE BOM_R34_SW BOM_R34_NW BOM_R50_NE BOM_R50_SE BOM_R50_SW BOM_R50_NW BOM_R64_NE BOM_R64_SE BOM_R64_SW BOM_R64_NW BOM_ROCI BOM_POCI BOM_EYE BOM_POS_METHOD BOM_PRES_METHOD NADI_LAT NADI_LON NADI_CAT NADI_WIND NADI_PRES WELLINGTON_LAT WELLINGTON_LON WELLINGTON_WIND WELLINGTON_PRES DS824_LAT DS824_LON DS824_STAGE DS824_WIND DS824_PRES TD9636_LAT TD9636_LON TD9636_STAGE TD9636_WIND TD9636_PRES TD9635_LAT TD9635_LON TD9635_WIND TD9635_PRES TD9635_ROCI NEUMANN_LAT NEUMANN_LON NEUMANN_CLASS NEUMANN_WIND NEUMANN_PRES MLC_LAT MLC_LON MLC_CLASS MLC_WIND MLC_PRES USA_GUST BOM_GUST BOM_GUST_PER REUNION_GUST REUNION_GUST_PER USA_SEAHGT USA_SEARAD_NE USA_SEARAD_SE USA_SEARAD_SW USA_SEARAD_NW STORM_SPEED STORM_DIR
1927089S15153 1927 21 SP EA NOT_NAMED 1927-03-29 23:00:00 NR -14.6000 153.100 bom main 518 518 ______O_______ -1 -14.6000 153.100 13 130
1927089S15153 1927 21 SP EA NOT_NAMED 1927-03-30 00:00:00 NR -14.7363 153.268 main 538 538 ______P_______ -1 -14.7363 153.268 13 131
1927089S15153 1927 21 SP EA NOT_NAMED 1927-03-30 03:00:00 NR -15.1533 153.769 main 615 615 ______P_______ -1 -15.1533 153.769 13 132
1927089S15153 1927 21 SP EA NOT_NAMED 1927-03-30 06:00:00 NR -15.6014 154.252 main 682 682 ______P_______ -1 -15.6014 154.252 13 137
1927089S15153 1927 21 SP EA NOT_NAMED 1927-03-30 09:00:00 NR -16.1050 154.703 main 752 752 ______P_______ -1 -16.1050 154.703 14 143
1927089S15153 1927 21 SP EA NOT_NAMED 1927-03-30 12:00:00 NR -16.6885 155.109 main 776 752 ______P_______ -1 -16.6885 155.109 15 150
1927089S15153 1927 21 SP EA NOT_NAMED 1927-03-30 15:00:00 NR -17.3767 155.456 main 751 701 ______P_______ -1 -17.3767 155.456 16 159
1927089S15153 1927 21 SP EA NOT_NAMED 1927-03-30 18:00:00 TS -18.2155 155.722 main 701 686 ______P__O____ -1 -18.1943 155.728 -18.3000 155.700 TC 18 165
1927089S15153 1927 21 SP EA NOT_NAMED 1927-03-30 19:00:00 TS -18.5249 155.785 bom main 686 652 ______O__P____ -1 -18.5000 155.800 -18.5748 155.754 TC 19 170
1927089S15153 1927 21 SP EA NOT_NAMED 1927-03-30 21:00:00 TS -19.1380 155.891 main 652 623 ______P__P____ -1 -19.1524 155.915 -19.1189 155.860 TC 18 171
1927089S15153 1927 21 SP EA NOT_NAMED 1927-03-30 23:00:00 TS -19.7231 155.978 bom main 623 612 ______O__P____ -1 -19.8000 156.000 -19.6461 155.957 TC 17 172
1927089S15153 1927 21 SP EA NOT_NAMED 1927-03-31 00:00:00 TS -19.9906 156.019 main 604 540 ______P__O____ -1 -20.0812 156.038 -19.9000 156.000 TC 15 173
1927089S15153 1927 21 SP EA NOT_NAMED 1927-03-31 03:00:00 TS -20.7044 156.111 main 540 490 ______P__P____ -1 -20.7954 156.118 -20.6135 156.103 TC 13 174
1927089S15153 1927 21 SP EA NOT_NAMED 1927-03-31 06:00:00 TS -21.3037 156.162 main 490 447 ______P__P____ -1 -21.3463 156.152 -21.2611 156.171 TC 11 176
1927089S15153 1927 21 SP EA NOT_NAMED 1927-03-31 09:00:00 TS -21.8128 156.180 main 447 414 ______P__P____ -1 -21.7737 156.151 -21.8519 156.208 TC 10 179
1927089S15153 1927 21 SP EA NOT_NAMED 1927-03-31 12:00:00 TS -22.2565 156.173 main 406 384 ______P__P____ -1 -22.1174 156.126 -22.3956 156.220 TC 9 182
1927089S15153 1927 21 SP EA NOT_NAMED 1927-03-31 15:00:00 TS -22.6591 156.151 main 376 348 ______P__P____ -1 -22.4168 156.087 -22.9014 156.214 TC 8 184
1927089S15153 1927 21 SP EA NOT_NAMED 1927-03-31 18:00:00 TS -23.0452 156.120 main 348 324 ______P__P____ -1 -22.7116 156.046 -23.3789 156.194 TC 8 184
1927089S15153 1927 21 SP EA NOT_NAMED 1927-03-31 21:00:00 TS -23.4393 156.090 main 324 309 ______P__P____ -1 -23.0413 156.012 -23.8373 156.167 TC 8 184
1927089S15153 1927 21 SP EA NOT_NAMED 1927-03-31 23:00:00 TS -23.7185 156.074 bom main 309 299 ______O__P____ -1 -23.3000 156.000 -24.1370 156.148 TC 9 0
1927089S15153 1927 21 SP EA NOT_NAMED 1927-04-01 00:00:00 TS -23.8857 156.072 main 299 280 ______P__P____ -1 -23.4854 156.004 -24.2861 156.139 TC 10 0
1927089S15153 1927 21 SP EA NOT_NAMED 1927-04-01 03:00:00 TS -24.4007 156.069 main 280 272 ______P__P____ -1 -24.0667 156.021 -24.7346 156.116 TC 11 179
1927089S15153 1927 21 SP EA NOT_NAMED 1927-04-01 06:00:00 TS -24.9361 156.075 main 272 271 ______P__P____ -1 -24.6799 156.046 -25.1922 156.105 TC 11 0
1927089S15153 1927 21 SP EA NOT_NAMED 1927-04-01 09:00:00 TS -25.4928 156.097 main 277 277 ______P__P____ -1 -25.3174 156.083 -25.6683 156.111 TC 11 177
1927089S15153 1927 21 SP EA NOT_NAMED 1927-04-01 12:00:00 TS -26.0719 156.138 main 297 297 ______P__P____ -1 -25.9716 156.136 -26.1721 156.141 TC 12 175
1927089S15153 1927 21 SP EA NOT_NAMED 1927-04-01 15:00:00 TS -26.6740 156.204 main 300 283 ______P__P____ -1 -26.6350 156.207 -26.7129 156.202 TC 12 173
1927089S15153 1927 21 SP EA NOT_NAMED 1927-04-01 18:00:00 TS -27.3000 156.300 990 bom main 283 273 ______O__O____ -1 -27.3000 156.300 990 4 -27.3000 156.300 TC 45 990 13 171
1927089S15153 1927 21 SP EA NOT_NAMED 1927-04-01 21:00:00 TS -27.9582 156.423 main 275 274 ______P__P____ -1 -27.9641 156.409 -27.9523 156.437 TC 13 170
1927089S15153 1927 21 SP EA NOT_NAMED 1927-04-01 23:00:00 TS -28.3932 156.521 bom main 283 283 ______O__P____ -1 -28.4000 156.500 -28.3864 156.543 TC 13 169
1927089S15153 1927 21 SP EA NOT_NAMED 1927-04-02 00:00:00 TS -28.6064 156.576 main 292 291 ______P__O____ -1 -28.6128 156.552 -28.6000 156.600 TC 13 166
1927089S15153 1927 21 SP EA NOT_NAMED 1927-04-02 03:00:00 TS -29.2245 156.760 main 312 312 ______P__P____ -1 -29.2295 156.731 -29.2194 156.789 TC 13 164
1927089S15153 1927 21 SP EA NOT_NAMED 1927-04-02 06:00:00 TS -29.8141 156.972 main 344 344 ______P__P____ -1 -29.8181 156.943 -29.8102 157.000 TC 12 162
1927089S15153 1927 21 SP EA NOT_NAMED 1927-04-02 09:00:00 TS -30.3810 157.206 main 378 378 ______P__P____ -1 -30.3839 157.181 -30.3781 157.231 TC 12 159
1927089S15153 1927 21 SP EA NOT_NAMED 1927-04-02 12:00:00 TS -30.9306 157.459 main 417 417 ______P__P____ -1 -30.9325 157.441 -30.9287 157.478 TC 12 158
1927089S15153 1927 21 SP EA NOT_NAMED 1927-04-02 15:00:00 TS -31.4684 157.726 main 438 438 ______P__P____ -1 -31.4694 157.716 -31.4674 157.735 TC 12 157
1927089S15153 1927 21 SP EA NOT_NAMED 1927-04-02 18:00:00 TS -32.0000 158.000 bom main 474 ______O__O____ -1 -32.0000 158.000 -32.0000 158.000 TC 12 156

Digital Typhoon Data and Search

About IBTrACS Database

This database is a web-friendly format of International Best Track Archive for Climate Stewardship (IBTrACS), a global best track data archive curated by NOAA dating back to 1842.

Updated: 2021-11-26